createdAt,value
2023-01-27T00:03:29.936Z,100567.06
2023-01-27T00:08:32.100Z,100567.25
2023-01-27T00:13:34.176Z,100564.16
2023-01-27T00:18:36.301Z,100562.28
2023-01-27T00:23:57.251Z,100557.28
2023-01-27T00:28:59.432Z,100552.75
2023-01-27T00:34:02.214Z,100549.16
2023-01-27T00:39:06.216Z,100550.00
2023-01-27T00:44:13.467Z,100553.47
2023-01-27T00:49:16.097Z,100534.53
2023-01-27T00:54:18.404Z,100549.50
2023-01-27T00:59:20.809Z,100555.53
2023-01-27T01:04:22.901Z,100537.09
2023-01-27T01:09:25.325Z,100538.41
2023-01-27T01:14:28.035Z,100546.56
2023-01-27T01:19:31.395Z,100552.97
2023-01-27T01:24:33.573Z,100531.66
2023-01-27T01:29:35.639Z,100540.28
2023-01-27T01:34:38.316Z,100526.41
2023-01-27T01:39:40.414Z,100537.25
2023-01-27T01:44:44.520Z,100537.06
2023-01-27T01:49:47.628Z,100529.97
2023-01-27T01:54:54.528Z,100540.22
2023-01-27T02:00:15.778Z,100532.94
2023-01-27T02:05:25.258Z,100536.25
2023-01-27T02:10:27.557Z,100511.91
2023-01-27T02:15:31.941Z,100508.78
2023-01-27T02:20:44.494Z,100502.97
2023-01-27T02:26:08.313Z,100508.37
2023-01-27T02:31:10.538Z,100504.69
2023-01-27T02:36:14.855Z,100492.66
2023-01-27T02:41:29.553Z,100496.81
2023-01-27T02:46:31.696Z,100471.06
2023-01-27T02:51:33.855Z,100465.03
2023-01-27T02:56:35.939Z,100464.28
2023-01-27T03:01:38.113Z,100462.41
2023-01-27T03:06:40.328Z,100463.06
2023-01-27T03:12:00.851Z,100476.78
2023-01-27T03:17:21.732Z,100460.75
2023-01-27T03:22:23.874Z,100453.28
2023-01-27T03:27:25.983Z,100452.88
2023-01-27T03:32:30.754Z,100447.03
2023-01-27T03:37:51.333Z,100446.81
2023-01-27T03:43:12.111Z,100448.47
2023-01-27T03:48:14.544Z,100429.16
2023-01-27T03:53:16.724Z,100382.56
2023-01-27T03:58:24.639Z,100436.84
2023-01-27T04:03:49.442Z,100431.66
2023-01-27T04:08:51.695Z,100420.84
2023-01-27T04:13:53.772Z,100420.00
2023-01-27T04:18:59.051Z,100350.38
2023-01-27T04:24:01.593Z,100423.56
2023-01-27T04:29:04.718Z,100405.03
2023-01-27T04:34:07.567Z,100425.41
2023-01-27T04:39:10.658Z,100412.12
2023-01-27T04:44:13.336Z,100426.69
2023-01-27T04:49:16.022Z,100429.56
2023-01-27T04:54:18.157Z,100416.03
2023-01-27T04:59:20.311Z,100437.47
2023-01-27T05:04:22.550Z,100432.69
2023-01-27T05:09:24.787Z,100426.00
2023-01-27T05:14:27.116Z,100443.66
2023-01-27T05:19:29.292Z,100440.91
2023-01-27T05:24:31.903Z,100431.56
2023-01-27T05:29:34.202Z,100429.50
2023-01-27T05:34:36.677Z,100438.19
2023-01-27T05:39:39.818Z,100437.59
2023-01-27T05:44:41.913Z,100436.53
2023-01-27T05:49:44.362Z,100440.28
2023-01-27T05:54:46.450Z,100437.97
2023-01-27T05:59:48.849Z,100419.28
2023-01-27T06:04:50.950Z,100423.03
2023-01-27T06:09:53.144Z,100419.09
2023-01-27T06:14:58.033Z,100442.41
2023-01-27T06:20:00.207Z,100407.69
2023-01-27T06:25:02.347Z,100423.34
2023-01-27T06:30:04.777Z,100414.16
2023-01-27T06:35:07.353Z,100398.56
2023-01-27T06:40:10.145Z,100422.44
2023-01-27T06:45:13.360Z,100431.56
2023-01-27T06:50:16.061Z,100410.31
2023-01-27T06:55:21.508Z,100430.84
2023-01-27T07:00:23.758Z,100428.50
2023-01-27T07:05:25.985Z,100445.28
2023-01-27T07:10:28.068Z,100418.34
2023-01-27T07:15:32.161Z,100413.63
2023-01-27T07:20:34.557Z,100430.81
2023-01-27T07:25:36.968Z,100423.81
2023-01-27T07:30:39.370Z,100451.44
2023-01-27T07:35:42.924Z,100451.09
2023-01-27T07:40:47.004Z,100446.84
2023-01-27T07:45:49.248Z,100439.19
2023-01-27T07:50:51.460Z,100421.31
2023-01-27T07:55:53.589Z,100415.03
2023-01-27T08:00:55.714Z,100432.84
2023-01-27T08:05:57.932Z,100425.69
2023-01-27T08:11:04.790Z,100417.34
2023-01-27T08:16:10.826Z,100438.47
2023-01-27T08:21:13.583Z,100440.56
2023-01-27T08:26:15.654Z,100436.50
2023-01-27T08:31:18.557Z,100441.09
2023-01-27T08:36:23.224Z,100433.56
2023-01-27T08:41:26.606Z,100449.94
2023-01-27T08:46:28.990Z,100447.78
2023-01-27T08:51:31.110Z,100439.81
2023-01-27T08:56:34.053Z,100441.69
2023-01-27T09:01:36.254Z,100458.09
2023-01-27T09:06:38.440Z,100443.03
2023-01-27T09:11:43.403Z,100444.91
2023-01-27T09:16:45.569Z,100458.56
2023-01-27T09:21:47.673Z,100462.91
2023-01-27T09:26:50.420Z,100461.31
2023-01-27T09:31:53.856Z,100469.28
2023-01-27T09:37:00.711Z,100455.66
2023-01-27T09:42:32.091Z,100475.00
2023-01-27T09:47:59.168Z,100478.38
2023-01-27T09:53:19.460Z,100474.31
2023-01-27T09:58:36.858Z,100472.75
2023-01-27T10:03:43.471Z,100480.87
2023-01-27T10:08:54.901Z,100465.91
2023-01-27T10:14:06.484Z,100465.22
2023-01-27T10:19:30.820Z,100473.56
2023-01-27T10:24:46.264Z,100466.22
2023-01-27T10:29:58.387Z,100453.91
2023-01-27T10:35:06.454Z,100459.31
2023-01-27T10:40:16.694Z,100462.59
2023-01-27T10:45:37.670Z,100461.06
2023-01-27T10:50:46.416Z,100457.75
2023-01-27T10:56:15.443Z,100463.63
2023-01-27T11:01:26.311Z,100465.25
2023-01-27T11:06:35.453Z,100456.34
2023-01-27T11:11:47.332Z,100454.28
2023-01-27T11:16:53.280Z,100438.72
2023-01-27T11:22:07.148Z,100439.19
2023-01-27T11:27:42.048Z,100427.56
2023-01-27T11:33:02.829Z,100443.31
2023-01-27T11:38:14.916Z,100442.88
2023-01-27T11:43:23.861Z,100425.25
2023-01-27T11:48:41.327Z,100370.25
2023-01-27T11:53:45.186Z,100413.91
2023-01-27T11:59:08.612Z,100412.06
2023-01-27T12:04:22.893Z,100414.88
2023-01-27T12:09:32.756Z,100404.28
2023-01-27T12:14:34.805Z,100398.12
2023-01-27T12:19:41.420Z,100383.16
2023-01-27T12:24:49.926Z,100396.22
2023-01-27T12:30:02.641Z,100388.38
2023-01-27T12:35:06.131Z,100374.44
2023-01-27T12:40:20.103Z,100322.84
2023-01-27T12:45:23.971Z,100360.69
2023-01-27T12:50:32.245Z,100361.03
2023-01-27T12:55:39.207Z,100376.78
2023-01-27T13:00:46.069Z,100359.37
2023-01-27T13:05:54.189Z,100353.00
2023-01-27T13:10:59.764Z,100356.38
2023-01-27T13:16:28.754Z,100363.34
2023-01-27T13:21:38.731Z,100382.87
2023-01-27T13:26:41.978Z,100379.87
2023-01-27T13:32:04.799Z,100386.78
2023-01-27T13:37:31.757Z,100400.50
2023-01-27T13:42:41.776Z,100394.19
2023-01-27T13:47:58.714Z,100384.38
2023-01-27T13:53:03.900Z,100392.47
2023-01-27T13:58:13.620Z,100402.47
2023-01-27T14:04:13.280Z,100400.09
2023-01-27T14:09:37.392Z,100387.84
2023-01-27T14:14:58.510Z,100396.53
2023-01-27T14:20:25.979Z,100396.41
2023-01-27T14:25:33.385Z,100385.25
2023-01-27T14:30:43.025Z,100391.00
2023-01-27T14:36:09.736Z,100381.97
2023-01-27T14:41:50.963Z,100386.19
2023-01-27T14:47:02.627Z,100392.44
2023-01-27T14:52:14.884Z,100384.44
2023-01-27T14:57:35.885Z,100374.34
2023-01-27T15:02:48.400Z,100394.13
2023-01-27T15:08:15.413Z,100378.59
2023-01-27T15:13:37.876Z,100384.84
2023-01-27T15:19:03.881Z,100382.78
2023-01-27T15:24:25.659Z,100386.56
2023-01-27T15:29:30.859Z,100389.28
2023-01-27T15:34:33.039Z,100379.16
2023-01-27T15:40:05.809Z,100395.00
2023-01-27T15:45:26.457Z,100398.00
2023-01-27T15:50:34.733Z,100413.37
2023-01-27T15:55:38.264Z,100414.84
2023-01-27T16:00:49.130Z,100408.22
2023-01-27T16:05:56.545Z,100389.69
2023-01-27T16:11:38.561Z,100382.72
2023-01-27T16:16:44.992Z,100402.66
2023-01-27T16:21:53.031Z,100409.75
2023-01-27T16:27:07.426Z,100413.37
2023-01-27T16:32:19.680Z,100400.06
2023-01-27T16:37:29.342Z,100416.72
2023-01-27T16:42:36.283Z,100429.09
2023-01-27T16:47:48.312Z,100430.97
2023-01-27T16:52:50.639Z,100429.25
2023-01-27T16:57:54.547Z,100445.38
2023-01-27T17:03:00.766Z,100449.91
2023-01-27T17:08:14.985Z,100432.56
2023-01-27T17:13:33.365Z,100426.25
2023-01-27T17:18:51.875Z,100450.59
2023-01-27T17:24:00.476Z,100455.53
2023-01-27T17:29:03.350Z,100466.59
2023-01-27T17:34:05.643Z,100474.00
2023-01-27T17:39:25.451Z,100452.53
2023-01-27T17:44:27.639Z,100435.50
2023-01-27T17:49:31.274Z,100449.44
2023-01-27T17:54:41.670Z,100464.19
2023-01-27T18:00:11.010Z,100463.78
2023-01-27T18:05:26.359Z,100464.50
2023-01-27T18:10:44.221Z,100467.63
2023-01-27T18:15:50.189Z,100465.09
2023-01-27T18:21:23.597Z,100478.78
2023-01-27T18:26:30.303Z,100486.69
2023-01-27T18:31:44.249Z,100482.09
2023-01-27T18:36:57.120Z,100479.78
2023-01-27T18:42:00.368Z,100472.75
2023-01-27T18:47:19.355Z,100460.81
2023-01-27T18:52:22.145Z,100477.34
2023-01-27T18:57:24.255Z,100482.41
2023-01-27T19:02:26.444Z,100476.69
2023-01-27T19:07:28.597Z,100462.94
2023-01-27T19:12:30.670Z,100474.25
2023-01-27T19:17:35.817Z,100439.00
2023-01-27T19:22:37.933Z,100470.87
2023-01-27T19:27:42.473Z,100481.47
2023-01-27T19:32:44.545Z,100472.50
2023-01-27T19:37:47.523Z,100481.37
2023-01-27T19:42:49.698Z,100492.72
2023-01-27T19:47:53.047Z,100489.41
2023-01-27T19:52:56.445Z,100486.31
2023-01-27T19:57:58.604Z,100497.94
2023-01-27T20:03:01.115Z,100484.22
2023-01-27T20:08:03.714Z,100505.84
2023-01-27T20:13:07.375Z,100497.00
2023-01-27T20:18:13.557Z,100519.34
2023-01-27T20:23:16.113Z,100527.12
2023-01-27T20:28:18.277Z,100522.00
2023-01-27T20:33:20.409Z,100529.66
2023-01-27T20:38:22.650Z,100533.16
2023-01-27T20:43:34.777Z,100503.34
2023-01-27T20:48:37.575Z,100533.59
2023-01-27T20:53:50.031Z,100538.75
2023-01-27T20:58:54.288Z,100523.72
2023-01-27T21:03:56.524Z,100532.19
2023-01-27T21:08:58.648Z,100533.53
2023-01-27T21:14:00.989Z,100536.59
2023-01-27T21:19:03.284Z,100530.66
2023-01-27T21:24:06.615Z,100532.47
2023-01-27T21:29:11.151Z,100536.84
2023-01-27T21:34:15.182Z,100524.69
2023-01-27T21:39:17.460Z,100533.88
2023-01-27T21:44:46.702Z,100533.69
2023-01-27T21:50:01.158Z,100518.44
2023-01-27T21:55:06.405Z,100539.84
2023-01-27T22:00:11.366Z,100537.12
2023-01-27T22:05:13.897Z,100544.19
2023-01-27T22:10:18.940Z,100537.72
2023-01-27T22:15:21.204Z,100549.16
2023-01-27T22:20:23.375Z,100527.50
2023-01-27T22:25:27.376Z,100541.78
2023-01-27T22:30:29.855Z,100548.56
2023-01-27T22:35:31.925Z,100525.47
2023-01-27T22:40:34.209Z,100532.56
2023-01-27T22:45:39.807Z,100528.44
2023-01-27T22:50:42.056Z,100521.91
2023-01-27T22:55:44.435Z,100531.81
2023-01-27T23:00:46.542Z,100527.44
2023-01-27T23:05:49.229Z,100529.50
2023-01-27T23:10:51.378Z,100529.88
2023-01-27T23:15:56.113Z,100517.88
2023-01-27T23:21:03.756Z,100532.81
2023-01-27T23:26:09.450Z,100529.25
2023-01-27T23:31:13.259Z,100527.22
2023-01-27T23:36:15.398Z,100530.00
2023-01-27T23:41:19.455Z,100502.97
2023-01-27T23:46:22.407Z,100531.91
2023-01-27T23:51:24.579Z,100525.44
2023-01-27T23:56:26.732Z,100525.41
